EDFM/MHG METAR and TAF weather

Enter ICAO airport designator
Station Type Date Time Source
EDFM METAR 2018/01/22 11:50 UTC NOAA

EDFM 221150Z 08004KT 6000 BKN038 06/06 Q1009


Station Type Date Time Source
EDFM Decoded METAR 2018/01/22 11:50 UTC NOAA

Baden Wurttemberg, Neuostheim, Germany (EDFM) 49-28-21N 008-30-56E
Jan 22, 2018 - 06:50 AM EST / 2018.01.22 1150 UTC
Wind: from the E (080 degrees) at 5 MPH (4 KT):0
Visibility: 3 mile(s):0
Sky conditions: mostly cloudy
Temperature: 42 F (6 C)
Dew Point: 42 F (6 C)
Relative Humidity: 100%
Pressure (altimeter): 29.80 in. Hg (1009 hPa)
ob: EDFM 221150Z 08004KT 6000 BKN038 06/06 Q1009
cycle: 12

Station Type Date Time Source
EDFM TAF 2012/03/06 06:30 UTC NOAA

TAF EDFM 060519Z 0606/0621 15004KT 9999 FEW040


Example: see airport list